Time;durP1;ratioP1;P1;durP2;ratioP2;P2;SDS_P1;SDS_P2;PMS_P1;PMS_P2;Temp;Humidity;BMP_temperature;BMP_pressure;BME280_temperature;BME280_humidity;BME280_pressure;Samples;Min_cycle;Max_cycle;Signal;HPM_P1;HPM_P2
2023/06/21 00:00:25;;;;;;;2.80;2.80;;;24.30;68.50;;;;;;5064399;28;43364;-75
2023/06/21 00:02:55;;;;;;;2.43;2.43;;;24.40;68.20;;;;;;5066299;28;43501;-76
2023/06/21 00:05:23;;;;;;;2.60;2.60;;;24.30;68.00;;;;;;5066109;28;43848;-76
2023/06/21 00:07:53;;;;;;;2.50;2.50;;;24.30;68.10;;;;;;5064139;28;45031;-76
2023/06/21 00:10:23;;;;;;;2.47;2.47;;;24.30;68.50;;;;;;5064952;28;43915;-76
2023/06/21 00:12:51;;;;;;;2.87;2.87;;;24.30;68.60;;;;;;5065012;28;43463;-75
2023/06/21 00:15:19;;;;;;;2.40;2.40;;;24.20;68.50;;;;;;5065670;28;43816;-75
2023/06/21 00:17:47;;;;;;;2.37;2.37;;;24.20;68.60;;;;;;5064654;28;44664;-73
2023/06/21 00:20:17;;;;;;;2.57;2.57;;;24.10;68.90;;;;;;5062556;28;43430;-76
2023/06/21 00:22:45;;;;;;;2.60;2.60;;;24.10;69.00;;;;;;5065262;28;43611;-76
2023/06/21 00:25:14;;;;;;;2.40;2.40;;;24.10;68.90;;;;;;5064616;28;45835;-76
2023/06/21 00:27:42;;;;;;;2.70;2.70;;;24.10;69.00;;;;;;5064349;28;45594;-76
2023/06/21 00:30:11;;;;;;;2.40;2.40;;;24.00;69.10;;;;;;5064551;28;43439;-74
2023/06/21 00:32:39;;;;;;;2.33;2.33;;;24.00;69.20;;;;;;5064775;28;43752;-75
2023/06/21 00:35:08;;;;;;;2.50;2.50;;;24.00;69.20;;;;;;5066248;28;43863;-76
2023/06/21 00:37:38;;;;;;;2.50;2.50;;;24.20;68.90;;;;;;5066013;28;43502;-76
2023/06/21 00:40:11;;;;;;;2.80;2.70;;;24.30;68.40;;;;;;5064807;28;43382;-76
2023/06/21 00:42:40;;;;;;;2.63;2.63;;;24.40;68.20;;;;;;5066002;28;43427;-75
2023/06/21 00:45:08;;;;;;;2.70;2.70;;;24.40;68.00;;;;;;5064342;28;46064;-75
2023/06/21 00:47:36;;;;;;;2.47;2.47;;;24.40;68.10;;;;;;5066014;28;43426;-75
2023/06/21 00:50:05;;;;;;;2.40;2.40;;;24.30;68.30;;;;;;5064416;28;43434;-74
2023/06/21 00:52:33;;;;;;;2.60;2.60;;;24.30;68.60;;;;;;5066311;28;43344;-74
2023/06/21 00:55:02;;;;;;;2.53;2.53;;;24.20;68.50;;;;;;5065643;28;43768;-74
2023/06/21 00:57:30;;;;;;;2.50;2.50;;;24.20;68.60;;;;;;5064098;28;44690;-75
2023/06/21 00:59:58;;;;;;;2.67;2.67;;;24.10;68.80;;;;;;5065970;28;43394;-77
2023/06/21 01:02:27;;;;;;;2.60;2.60;;;24.10;68.90;;;;;;5067663;28;43378;-71
2023/06/21 01:04:57;;;;;;;2.60;2.60;;;24.10;69.00;;;;;;5063062;28;45234;-70
2023/06/21 01:07:30;;;;;;;2.77;2.67;;;24.10;69.00;;;;;;5064885;28;45346;-71
2023/06/21 01:10:12;;;;;;;2.40;2.40;;;24.10;69.20;;;;;;5063422;28;44056;-71
2023/06/21 01:12:46;;;;;;;2.60;2.60;;;24.00;69.20;;;;;;5068677;28;43562;-71
2023/06/21 01:15:18;;;;;;;2.50;2.50;;;24.10;69.30;;;;;;5068609;28;46559;-70
2023/06/21 01:17:46;;;;;;;2.50;2.50;;;24.20;69.00;;;;;;5069997;28;43475;-73
2023/06/21 01:20:18;;;;;;;2.70;2.70;;;24.30;68.60;;;;;;5066649;28;43532;-70
2023/06/21 01:22:55;;;;;;;2.50;2.50;;;24.40;68.30;;;;;;5069432;28;43316;-70
2023/06/21 01:25:33;;;;;;;2.83;2.83;;;24.40;68.10;;;;;;5069289;28;43564;-70
2023/06/21 01:28:09;;;;;;;2.37;2.37;;;24.30;68.20;;;;;;5069176;28;43365;-70
2023/06/21 01:30:38;;;;;;;2.50;2.50;;;24.30;68.50;;;;;;5068181;28;43466;-72
2023/06/21 01:33:07;;;;;;;2.40;2.40;;;24.20;68.50;;;;;;5069871;28;43856;-71
2023/06/21 01:35:35;;;;;;;2.40;2.40;;;24.10;68.50;;;;;;5067695;28;45824;-71
2023/06/21 01:38:03;;;;;;;2.53;2.43;;;24.10;68.60;;;;;;5067628;28;44786;-71
2023/06/21 01:40:31;;;;;;;2.70;2.70;;;24.10;69.00;;;;;;5069230;28;43472;-72
2023/06/21 01:42:59;;;;;;;2.50;2.50;;;24.10;69.00;;;;;;5068089;28;44014;-71
2023/06/21 01:45:27;;;;;;;2.43;2.43;;;24.10;69.00;;;;;;5069003;28;43945;-71
2023/06/21 01:47:57;;;;;;;2.70;2.70;;;24.00;68.90;;;;;;5067635;28;44733;-71
2023/06/21 01:50:26;;;;;;;2.40;2.40;;;24.00;69.20;;;;;;5069090;28;43446;-71
2023/06/21 01:52:55;;;;;;;2.60;2.60;;;24.00;69.30;;;;;;5068163;28;43376;-71
2023/06/21 01:55:23;;;;;;;2.40;2.40;;;24.10;69.30;;;;;;5068047;28;43689;-71
2023/06/21 01:57:51;;;;;;;2.40;2.40;;;24.20;69.00;;;;;;5067391;28;44740;-71
2023/06/21 02:00:21;;;;;;;2.43;2.43;;;24.30;68.50;;;;;;5067555;28;43398;-71
2023/06/21 02:02:53;;;;;;;2.53;2.53;;;24.40;68.20;;;;;;5067887;28;43756;-71
2023/06/21 02:05:22;;;;;;;2.40;2.40;;;24.40;68.10;;;;;;5068707;28;43596;-71
2023/06/21 02:07:51;;;;;;;2.60;2.60;;;24.30;68.00;;;;;;5067047;28;45156;-72
2023/06/21 02:10:19;;;;;;;2.43;2.43;;;24.30;68.50;;;;;;5101481;27;43465;-72
2023/06/21 02:12:48;;;;;;;2.70;2.70;;;24.20;68.50;;;;;;5068373;28;43477;-72
2023/06/21 02:15:17;;;;;;;2.77;2.73;;;24.20;68.50;;;;;;5066645;28;45424;-74
2023/06/21 02:17:48;;;;;;;2.30;2.30;;;24.20;68.50;;;;;;5066897;28;44993;-71
2023/06/21 02:20:16;;;;;;;2.37;2.37;;;24.10;68.90;;;;;;5067445;28;43859;-71
2023/06/21 02:22:46;;;;;;;2.40;2.40;;;24.10;68.90;;;;;;5066633;28;43441;-70
2023/06/21 02:25:15;;;;;;;2.60;2.60;;;24.10;68.90;;;;;;5067114;28;45866;-70
2023/06/21 02:27:43;;;;;;;2.50;2.50;;;24.10;68.90;;;;;;5067060;28;44717;-72
2023/06/21 02:30:12;;;;;;;2.50;2.33;;;24.00;69.10;;;;;;5067792;28;44084;-71
2023/06/21 02:32:41;;;;;;;2.57;2.57;;;24.00;69.30;;;;;;5067258;28;43477;-70
2023/06/21 02:35:11;;;;;;;2.40;2.40;;;24.10;69.30;;;;;;5066708;28;46412;-70
2023/06/21 02:37:39;;;;;;;2.77;2.77;;;24.20;68.90;;;;;;5068148;28;43436;-71
2023/06/21 02:40:10;;;;;;;2.53;2.53;;;24.30;68.50;;;;;;5068873;28;43833;-70
2023/06/21 02:42:38;;;;;;;2.70;2.70;;;24.40;68.30;;;;;;5066898;28;43448;-70
2023/06/21 02:45:09;;;;;;;2.53;2.53;;;24.40;68.00;;;;;;5066614;28;45962;-70
2023/06/21 02:47:37;;;;;;;2.93;2.83;;;24.30;68.00;;;;;;5068182;28;43418;-71
2023/06/21 02:50:06;;;;;;;2.77;2.77;;;24.20;68.20;;;;;;5060068;28;43449;-71
2023/06/21 02:52:35;;;;;;;2.50;2.50;;;24.20;68.60;;;;;;5068767;28;43418;-71
2023/06/21 02:55:04;;;;;;;2.43;2.43;;;24.20;68.60;;;;;;5068028;28;45203;-71
2023/06/21 02:57:33;;;;;;;2.60;2.50;;;24.10;68.40;;;;;;5063593;28;43395;-71
2023/06/21 03:00:13;;;;;;;2.50;2.50;;;24.10;68.80;;;;;;5068000;28;43430;-71
2023/06/21 03:02:44;;;;;;;2.40;2.40;;;24.00;69.00;;;;;;5062887;28;43384;-70
2023/06/21 03:05:12;;;;;;;2.53;2.53;;;24.00;69.00;;;;;;5067631;28;44022;-70
2023/06/21 03:07:43;;;;;;;2.50;2.50;;;24.10;68.90;;;;;;5066024;28;44690;-70
2023/06/21 03:10:13;;;;;;;2.50;2.50;;;24.00;69.00;;;;;;5068344;28;43361;-70
2023/06/21 03:12:42;;;;;;;2.60;2.60;;;24.00;69.20;;;;;;5067193;28;43989;-70
2023/06/21 03:15:14;;;;;;;2.47;2.47;;;24.00;69.20;;;;;;5065749;28;43914;-71
2023/06/21 03:17:43;;;;;;;2.87;2.80;;;24.00;69.10;;;;;;5065795;28;43842;-70
2023/06/21 03:20:13;;;;;;;2.43;2.43;;;24.00;69.20;;;;;;5067891;28;43410;-70
2023/06/21 03:22:43;;;;;;;2.43;2.43;;;24.00;69.40;;;;;;5066737;28;43648;-70
2023/06/21 03:25:12;;;;;;;2.43;2.43;;;23.90;69.30;;;;;;5066018;28;46061;-70
2023/06/21 03:27:43;;;;;;;2.27;2.27;;;24.00;69.30;;;;;;5065842;28;44719;-70
2023/06/21 03:30:12;;;;;;;2.40;2.40;;;24.10;68.90;;;;;;5066179;28;43400;-70
2023/06/21 03:32:46;;;;;;;2.50;2.50;;;24.30;68.60;;;;;;5066465;28;43570;-73
2023/06/21 03:35:17;;;;;;;2.83;2.83;;;24.30;68.30;;;;;;5066092;28;45740;-70
2023/06/21 03:37:46;;;;;;;2.60;2.60;;;24.30;68.10;;;;;;5066177;28;43890;-74
2023/06/21 03:40:16;;;;;;;2.63;2.63;;;24.30;68.10;;;;;;5065674;28;43498;-71
2023/06/21 03:42:45;;;;;;;2.40;2.30;;;24.20;68.60;;;;;;5066140;28;43438;-72
2023/06/21 03:45:14;;;;;;;2.57;2.57;;;24.10;68.60;;;;;;5064855;28;45703;-72
2023/06/21 03:47:47;;;;;;;2.33;2.33;;;24.10;68.70;;;;;;5065816;28;43398;-71
2023/06/21 03:50:15;;;;;;;2.40;2.40;;;24.10;68.70;;;;;;5066138;28;43976;-71
2023/06/21 03:52:46;;;;;;;2.60;2.60;;;24.10;68.90;;;;;;5066677;28;43530;-71
2023/06/21 03:55:16;;;;;;;2.70;2.60;;;24.00;69.00;;;;;;5066052;28;44007;-72
2023/06/21 03:57:45;;;;;;;2.97;2.87;;;24.00;69.00;;;;;;5065965;28;45020;-72
2023/06/21 04:00:15;;;;;;;3.50;3.23;;;24.00;69.00;;;;;;5066128;28;43502;-71
2023/06/21 04:02:47;;;;;;;6.50;3.97;;;24.00;69.00;;;;;;5066605;28;43905;-72
2023/06/21 04:05:15;;;;;;;6.13;4.43;;;24.00;69.30;;;;;;5065533;28;45400;-71
2023/06/21 04:07:44;;;;;;;5.43;4.30;;;24.00;69.20;;;;;;5065974;28;44729;-71
2023/06/21 04:10:13;;;;;;;8.47;4.70;;;24.10;68.90;;;;;;5065499;28;43857;-72
2023/06/21 04:12:41;;;;;;;9.90;4.97;;;24.30;68.60;;;;;;5067708;28;43494;-71
2023/06/21 04:15:11;;;;;;;8.47;4.83;;;24.40;68.30;;;;;;5066983;28;43575;-72
2023/06/21 04:17:41;;;;;;;7.10;4.97;;;24.40;68.00;;;;;;5065617;28;43526;-72
2023/06/21 04:20:10;;;;;;;8.80;5.40;;;24.30;68.00;;;;;;5062987;28;43477;-72
2023/06/21 04:22:39;;;;;;;8.07;5.43;;;24.30;68.40;;;;;;5065079;28;43465;-72
2023/06/21 04:25:09;;;;;;;7.90;5.70;;;24.30;68.50;;;;;;5066256;28;43905;-71
2023/06/21 04:27:38;;;;;;;8.37;5.20;;;24.20;68.50;;;;;;5066034;28;43912;-72
2023/06/21 04:30:11;;;;;;;9.40;5.40;;;24.20;68.50;;;;;;5064913;28;43436;-72
2023/06/21 04:32:45;;;;;;;9.37;5.57;;;24.10;68.60;;;;;;5065670;28;43445;-72
2023/06/21 04:35:15;;;;;;;9.43;5.47;;;24.10;69.00;;;;;;5066450;28;43885;-70
2023/06/21 04:37:44;;;;;;;8.53;5.77;;;24.10;69.00;;;;;;5066747;28;43374;-74
2023/06/21 04:40:15;;;;;;;8.40;5.43;;;24.10;68.90;;;;;;5066289;28;43896;-70
2023/06/21 04:43:01;;;;;;;9.07;5.87;;;24.00;68.90;;;;;;5063570;28;43463;-70
2023/06/21 04:45:31;;;;;;;12.17;6.10;;;24.00;69.30;;;;;;5065932;28;45464;-71
2023/06/21 04:47:59;;;;;;;7.97;5.73;;;24.00;69.30;;;;;;5068353;28;44427;-70
2023/06/21 04:50:27;;;;;;;9.87;6.20;;;24.00;69.20;;;;;;5068690;28;43513;-71
2023/06/21 04:52:59;;;;;;;9.17;5.93;;;24.00;69.20;;;;;;5070498;28;43442;-70
2023/06/21 04:55:28;;;;;;;6.63;5.37;;;24.00;69.10;;;;;;5070030;28;44284;-71
2023/06/21 04:57:58;;;;;;;8.33;6.10;;;23.90;69.10;;;;;;5070045;28;43397;-71
2023/06/21 05:00:26;;;;;;;6.60;5.47;;;23.90;69.20;;;;;;5068766;28;43389;-71
2023/06/21 05:02:56;;;;;;;7.23;6.23;;;23.90;69.30;;;;;;5070235;28;43458;-72
2023/06/21 05:05:24;;;;;;;9.60;6.00;;;23.90;69.40;;;;;;5069321;28;43711;-74
2023/06/21 05:07:52;;;;;;;6.20;5.60;;;23.90;69.50;;;;;;5069293;28;43412;-71
2023/06/21 05:10:20;;;;;;;8.57;6.20;;;23.80;69.40;;;;;;5069856;28;43420;-71
2023/06/21 05:12:48;;;;;;;7.93;6.30;;;23.80;69.60;;;;;;5068845;28;43412;-70
2023/06/21 05:15:16;;;;;;;8.63;6.30;;;23.80;70.00;;;;;;5069904;28;43909;-70
2023/06/21 05:17:45;;;;;;;8.47;6.00;;;23.90;69.80;;;;;;5068121;28;44560;-71
2023/06/21 05:20:14;;;;;;;10.07;6.47;;;24.00;69.40;;;;;;5069732;28;43420;-72
2023/06/21 05:22:42;;;;;;;8.03;5.73;;;24.20;68.90;;;;;;5068762;28;43549;-70
2023/06/21 05:25:10;;;;;;;7.67;5.87;;;24.50;68.20;;;;;;5069348;28;43850;-70
2023/06/21 05:27:39;;;;;;;5.72;5.18;;;24.70;67.60;;;;;;5069198;28;43768;-70
2023/06/21 05:30:08;;;;;;;7.57;5.88;;;24.90;66.70;;;;;;5069763;28;43454;-70
2023/06/21 05:32:36;;;;;;;8.68;6.03;;;25.10;66.00;;;;;;5068719;28;43392;-70
2023/06/21 05:35:04;;;;;;;7.43;6.07;;;25.30;65.50;;;;;;5069022;28;43677;-71
2023/06/21 05:37:34;;;;;;;6.32;5.53;;;25.40;65.10;;;;;;5069057;28;44134;-70
2023/06/21 05:40:02;;;;;;;6.40;5.80;;;25.50;64.80;;;;;;5069599;28;43409;-70
2023/06/21 05:42:31;;;;;;;7.13;5.47;;;25.50;64.60;;;;;;5069609;28;43900;-71
2023/06/21 05:44:59;;;;;;;9.23;5.63;;;25.50;64.50;;;;;;5069403;28;43635;-70
2023/06/21 05:47:27;;;;;;;6.28;5.68;;;25.50;64.40;;;;;;5068946;28;43955;-70
2023/06/21 05:49:55;;;;;;;7.05;6.05;;;25.50;64.70;;;;;;5069204;28;43417;-70
2023/06/21 05:52:23;;;;;;;7.07;5.68;;;25.30;65.20;;;;;;5067980;28;43514;-71
2023/06/21 05:54:53;;;;;;;6.68;6.03;;;25.20;65.40;;;;;;5068179;28;43623;-70
2023/06/21 05:57:21;;;;;;;7.22;6.00;;;25.00;66.00;;;;;;5069179;28;43381;-70
2023/06/21 05:59:49;;;;;;;6.33;5.67;;;24.90;66.20;;;;;;5069047;28;43380;-70
2023/06/21 06:02:18;;;;;;;6.10;5.40;;;24.80;66.30;;;;;;5069453;28;43374;-71
2023/06/21 06:04:46;;;;;;;6.90;6.17;;;24.70;66.80;;;;;;5069010;28;43609;-70
2023/06/21 06:07:14;;;;;;;5.43;4.93;;;24.60;67.40;;;;;;5068803;28;43433;-71
2023/06/21 06:09:42;;;;;;;6.10;5.50;;;24.50;67.40;;;;;;5068776;28;43399;-70
2023/06/21 06:12:11;;;;;;;6.23;5.70;;;24.50;67.50;;;;;;5067936;28;43492;-70
2023/06/21 06:14:39;;;;;;;5.83;5.33;;;24.40;67.70;;;;;;5068951;28;43780;-71
2023/06/21 06:17:07;;;;;;;6.70;5.70;;;24.40;68.30;;;;;;5069068;28;44031;-72
2023/06/21 06:19:35;;;;;;;6.20;5.60;;;24.40;68.20;;;;;;5068931;28;43536;-71
2023/06/21 06:22:04;;;;;;;5.60;5.20;;;24.50;68.00;;;;;;5069221;28;43416;-71
2023/06/21 06:24:31;;;;;;;5.63;5.20;;;24.60;67.60;;;;;;5068803;28;43597;-70
2023/06/21 06:26:59;;;;;;;5.10;4.70;;;24.60;68.10;;;;;;5068197;28;43435;-70
2023/06/21 06:29:30;;;;;;;5.87;5.37;;;24.60;67.40;;;;;;5068644;28;43402;-70
2023/06/21 06:31:58;;;;;;;5.37;5.07;;;24.50;67.30;;;;;;5068982;28;43404;-71
2023/06/21 06:34:26;;;;;;;5.30;4.90;;;24.50;67.90;;;;;;5068652;28;43852;-70
2023/06/21 06:36:54;;;;;;;5.93;5.43;;;24.40;68.00;;;;;;5068726;28;43378;-71
2023/06/21 06:39:41;;;;;;;5.70;5.23;;;24.40;68.00;;;;;;5066761;28;43346;-70
2023/06/21 06:42:09;;;;;;;5.30;4.90;;;24.30;68.00;;;;;;5068766;28;43940;-71
2023/06/21 06:44:39;;;;;;;5.60;5.10;;;24.30;68.60;;;;;;5068373;28;43869;-70
2023/06/21 06:47:07;;;;;;;5.53;5.10;;;24.20;68.70;;;;;;5066343;28;44663;-70
2023/06/21 06:49:35;;;;;;;5.03;4.70;;;24.30;68.50;;;;;;5068051;28;43405;-70
2023/06/21 06:52:04;;;;;;;5.83;5.33;;;24.40;68.30;;;;;;5068646;28;43920;-70
2023/06/21 06:54:32;;;;;;;5.78;5.18;;;24.50;68.00;;;;;;5068477;28;44026;-71
2023/06/21 06:57:00;;;;;;;4.97;4.67;;;24.50;67.80;;;;;;5066495;28;45086;-71
2023/06/21 06:59:28;;;;;;;5.03;4.70;;;24.50;67.80;;;;;;5068548;28;43469;-70
2023/06/21 07:01:58;;;;;;;5.40;5.00;;;24.40;67.80;;;;;;5068036;28;43390;-73
2023/06/21 07:04:28;;;;;;;5.53;5.10;;;24.30;68.30;;;;;;5067057;28;44062;-71
2023/06/21 07:06:58;;;;;;;5.37;4.87;;;24.30;68.50;;;;;;5067521;28;43906;-70
2023/06/21 07:09:26;;;;;;;5.27;4.77;;;24.30;68.50;;;;;;5065277;28;43423;-71
2023/06/21 07:11:59;;;;;;;5.33;4.93;;;24.20;68.40;;;;;;5068559;28;43405;-70
2023/06/21 07:14:27;;;;;;;4.70;4.40;;;24.10;68.80;;;;;;5067801;28;43840;-72
2023/06/21 07:16:54;;;;;;;5.37;4.97;;;24.10;69.00;;;;;;5066786;28;43464;-71
2023/06/21 07:19:24;;;;;;;5.53;5.13;;;24.20;68.90;;;;;;5067712;28;44085;-72
2023/06/21 07:21:52;;;;;;;5.50;5.13;;;24.30;68.70;;;;;;5067460;28;43454;-70
2023/06/21 07:24:20;;;;;;;5.17;4.77;;;24.30;68.60;;;;;;5066274;28;45773;-72
2023/06/21 07:26:48;;;;;;;4.90;4.60;;;24.20;68.50;;;;;;5067610;28;43438;-74
2023/06/21 07:29:16;;;;;;;4.90;4.60;;;24.20;69.00;;;;;;5068036;28;44067;-70
2023/06/21 07:31:44;;;;;;;5.43;5.03;;;24.20;68.90;;;;;;5068487;28;43452;-70
2023/06/21 07:34:12;;;;;;;4.63;4.37;;;24.20;68.80;;;;;;5100180;27;47170;-70
2023/06/21 07:36:43;;;;;;;4.93;4.63;;;24.10;68.70;;;;;;5067550;28;43406;-72
2023/06/21 07:39:11;;;;;;;4.93;4.63;;;24.10;69.10;;;;;;5066047;28;43490;-71
2023/06/21 07:41:39;;;;;;;4.87;4.57;;;24.10;69.30;;;;;;5068358;28;43446;-71
2023/06/21 07:44:07;;;;;;;5.00;4.70;;;24.10;69.00;;;;;;5065722;28;45717;-71
2023/06/21 07:46:35;;;;;;;4.57;4.17;;;24.20;68.80;;;;;;5067524;28;43454;-70
2023/06/21 07:49:03;;;;;;;4.80;4.50;;;24.30;68.80;;;;;;5065963;28;43382;-70
2023/06/21 07:51:31;;;;;;;4.80;4.40;;;24.20;68.60;;;;;;5066544;28;43550;-72
2023/06/21 07:54:01;;;;;;;4.80;4.50;;;24.10;68.80;;;;;;5066728;28;43599;-70
2023/06/21 07:56:29;;;;;;;5.23;4.93;;;24.10;69.00;;;;;;5067229;28;43505;-70
2023/06/21 07:58:57;;;;;;;4.13;3.93;;;24.10;69.00;;;;;;5067455;28;43385;-71
2023/06/21 08:01:25;;;;;;;4.33;4.17;;;24.10;69.60;;;;;;5067264;28;44064;-71
2023/06/21 08:03:54;;;;;;;4.80;4.50;;;24.10;68.90;;;;;;5067198;28;43828;-71
2023/06/21 08:06:22;;;;;;;4.90;4.60;;;24.00;69.30;;;;;;5066968;28;43436;-75
2023/06/21 08:08:50;;;;;;;4.20;4.00;;;24.00;69.30;;;;;;5066653;28;43346;-70
2023/06/21 08:11:19;;;;;;;4.40;4.20;;;24.00;69.30;;;;;;5066155;28;44100;-72
2023/06/21 08:13:47;;;;;;;4.53;4.33;;;24.00;69.20;;;;;;5064981;28;45766;-70
2023/06/21 08:16:15;;;;;;;4.70;4.40;;;24.00;69.60;;;;;;5065852;28;44441;-71
2023/06/21 08:18:43;;;;;;;4.27;4.07;;;24.00;69.70;;;;;;5067136;28;43465;-70
2023/06/21 08:21:11;;;;;;;4.23;4.03;;;24.10;69.40;;;;;;5069116;28;43432;-70
2023/06/21 08:23:39;;;;;;;4.30;4.10;;;24.10;69.00;;;;;;5070231;28;43595;-70
2023/06/21 08:26:07;;;;;;;4.50;4.30;;;24.30;68.70;;;;;;5070183;28;43472;-70
2023/06/21 08:28:36;;;;;;;4.50;4.30;;;24.30;68.60;;;;;;5070689;28;43343;-70
2023/06/21 08:31:04;;;;;;;4.40;4.20;;;24.30;68.60;;;;;;5069071;28;43870;-73
2023/06/21 08:33:32;;;;;;;4.27;4.07;;;24.30;68.70;;;;;;5070449;28;43966;-70
2023/06/21 08:36:00;;;;;;;4.53;4.23;;;24.10;69.00;;;;;;5070509;28;43457;-70
2023/06/21 08:38:28;;;;;;;4.03;3.83;;;24.10;69.10;;;;;;5068744;28;43916;-72
2023/06/21 08:40:58;;;;;;;4.33;4.13;;;24.10;69.00;;;;;;5070451;28;43542;-70
2023/06/21 08:43:26;;;;;;;4.40;4.20;;;24.10;69.00;;;;;;5069301;28;43677;-70
2023/06/21 08:45:56;;;;;;;4.30;4.10;;;24.00;69.50;;;;;;5070272;28;43428;-70
2023/06/21 08:48:24;;;;;;;3.87;3.77;;;24.00;69.70;;;;;;5070104;28;43435;-70
2023/06/21 08:50:52;;;;;;;3.93;3.73;;;24.00;69.60;;;;;;5070418;28;43535;-70
2023/06/21 08:53:23;;;;;;;3.80;3.70;;;24.00;69.50;;;;;;5068674;28;45714;-70
2023/06/21 08:55:51;;;;;;;4.33;4.13;;;23.90;69.70;;;;;;5070137;28;43973;-70
2023/06/21 08:58:21;;;;;;;4.10;3.90;;;23.90;69.90;;;;;;5069968;28;43427;-71
2023/06/21 09:00:51;;;;;;;3.90;3.70;;;24.00;69.70;;;;;;5067111;28;43382;-71
2023/06/21 09:03:24;;;;;;;3.90;3.80;;;24.10;69.30;;;;;;5063356;28;43595;-71
2023/06/21 09:05:54;;;;;;;4.17;3.97;;;24.20;68.80;;;;;;5068396;28;44689;-70
2023/06/21 09:08:22;;;;;;;3.97;3.87;;;24.30;68.70;;;;;;5068688;28;44009;-70
2023/06/21 09:10:50;;;;;;;3.90;3.80;;;24.30;68.70;;;;;;5068967;28;44010;-72
2023/06/21 09:13:19;;;;;;;3.93;3.73;;;24.20;68.60;;;;;;5069884;28;43593;-75
2023/06/21 09:15:48;;;;;;;4.10;3.90;;;24.10;69.00;;;;;;5067809;28;44246;-70
2023/06/21 09:18:17;;;;;;;4.07;3.87;;;24.10;69.30;;;;;;5068191;28;43422;-70
2023/06/21 09:20:48;;;;;;;4.10;3.90;;;24.10;69.20;;;;;;5070219;28;43467;-70
2023/06/21 09:23:16;;;;;;;4.03;3.83;;;24.00;69.20;;;;;;5068565;28;45806;-70
2023/06/21 09:25:44;;;;;;;3.63;3.53;;;24.00;69.30;;;;;;5068290;28;44675;-70
2023/06/21 09:28:13;;;;;;;4.20;4.00;;;23.90;69.70;;;;;;5069231;28;43593;-70
2023/06/21 09:30:41;;;;;;;3.87;3.67;;;24.00;69.70;;;;;;5069366;28;43358;-70
2023/06/21 09:33:10;;;;;;;3.70;3.60;;;23.90;69.60;;;;;;5069282;28;43864;-70
2023/06/21 09:35:39;;;;;;;3.60;3.50;;;23.90;69.40;;;;;;5069628;28;43595;-71
2023/06/21 09:38:22;;;;;;;3.67;3.57;;;23.90;70.00;;;;;;5069252;28;43485;-71
2023/06/21 09:40:50;;;;;;;3.73;3.60;;;23.90;70.00;;;;;;5070015;28;43396;-70
2023/06/21 09:43:19;;;;;;;4.10;3.90;;;24.00;69.80;;;;;;5068999;28;43893;-71
2023/06/21 09:46:04;;;;;;;3.80;3.70;;;24.10;69.30;;;;;;5069455;28;44487;-73
2023/06/21 09:48:33;;;;;;;3.57;3.47;;;24.20;68.90;;;;;;5067379;28;44043;-72
2023/06/21 09:51:02;;;;;;;3.67;3.47;;;24.30;68.90;;;;;;5069829;28;43301;-71
2023/06/21 09:53:32;;;;;;;4.03;3.83;;;24.30;69.00;;;;;;5068966;28;43531;-71
2023/06/21 09:56:00;;;;;;;3.90;3.70;;;24.20;68.90;;;;;;5069085;28;43441;-72
2023/06/21 09:58:29;;;;;;;3.60;3.50;;;24.10;69.30;;;;;;5068956;28;43307;-72
2023/06/21 10:00:57;;;;;;;3.40;3.30;;;24.10;69.30;;;;;;5069580;28;43459;-71
2023/06/21 10:03:28;;;;;;;3.60;3.50;;;24.00;69.30;;;;;;5068832;28;43595;-71
2023/06/21 10:05:56;;;;;;;3.50;3.40;;;24.00;69.20;;;;;;5067374;28;44600;-71
2023/06/21 10:08:28;;;;;;;3.60;3.50;;;24.00;69.70;;;;;;5068642;28;43368;-71
2023/06/21 10:10:58;;;;;;;3.70;3.60;;;24.00;69.80;;;;;;5069359;28;44008;-71
2023/06/21 10:13:26;;;;;;;3.40;3.30;;;24.00;69.80;;;;;;5064557;28;43595;-72
2023/06/21 10:15:55;;;;;;;3.60;3.50;;;23.90;69.50;;;;;;5068970;28;43437;-70
2023/06/21 10:18:23;;;;;;;3.90;3.80;;;23.90;70.00;;;;;;5063950;28;43402;-70
2023/06/21 10:20:54;;;;;;;3.47;3.37;;;23.90;70.10;;;;;;5068962;28;43438;-70
2023/06/21 10:23:22;;;;;;;3.43;3.33;;;23.90;70.00;;;;;;5065281;28;43999;-70
2023/06/21 10:25:51;;;;;;;3.43;3.33;;;23.90;69.90;;;;;;5068936;28;43366;-70
2023/06/21 10:28:21;;;;;;;3.57;3.43;;;23.90;69.90;;;;;;5067117;28;43483;-70
2023/06/21 10:30:49;;;;;;;3.33;3.23;;;23.90;70.30;;;;;;5068973;28;43375;-71
2023/06/21 10:33:17;;;;;;;3.63;3.53;;;23.90;70.10;;;;;;5068663;28;43607;-71
2023/06/21 10:35:47;;;;;;;3.50;3.40;;;24.00;69.70;;;;;;5067322;28;44953;-73
2023/06/21 10:38:21;;;;;;;3.50;3.40;;;24.10;69.30;;;;;;5068189;28;43935;-71
2023/06/21 10:40:50;;;;;;;3.33;3.23;;;24.20;68.90;;;;;;5068284;28;43494;-70
2023/06/21 10:43:18;;;;;;;3.37;3.27;;;24.30;69.00;;;;;;5066181;28;43872;-70
2023/06/21 10:45:48;;;;;;;3.50;3.40;;;24.20;68.90;;;;;;5068754;28;44105;-71
2023/06/21 10:48:16;;;;;;;3.63;3.43;;;24.10;69.20;;;;;;5068736;28;43348;-70
2023/06/21 10:50:44;;;;;;;3.63;3.47;;;24.10;69.30;;;;;;5068108;28;43332;-74
2023/06/21 10:53:13;;;;;;;3.13;3.03;;;24.10;69.40;;;;;;5066263;28;45421;-70
2023/06/21 10:55:41;;;;;;;3.90;3.80;;;24.10;69.30;;;;;;5068159;28;43417;-71
2023/06/21 10:58:09;;;;;;;3.50;3.40;;;24.00;69.30;;;;;;5066698;28;43469;-71
2023/06/21 11:00:37;;;;;;;3.23;3.13;;;24.00;69.80;;;;;;5068753;28;43434;-70
2023/06/21 11:03:12;;;;;;;3.20;3.10;;;24.00;69.90;;;;;;5067968;28;43866;-72
2023/06/21 11:05:41;;;;;;;3.63;3.43;;;24.00;69.80;;;;;;5067751;28;43316;-71
2023/06/21 11:08:10;;;;;;;3.50;3.40;;;24.00;69.70;;;;;;5066011;28;43414;-70
2023/06/21 11:10:40;;;;;;;2.90;2.80;;;23.90;70.10;;;;;;5066717;28;43419;-71
2023/06/21 11:13:08;;;;;;;2.90;2.80;;;23.90;70.10;;;;;;5068108;28;43771;-69
2023/06/21 11:15:38;;;;;;;3.10;3.00;;;23.90;70.10;;;;;;5067982;28;43381;-71
2023/06/21 11:18:10;;;;;;;2.97;2.87;;;23.90;69.80;;;;;;5063436;28;43406;-71
2023/06/21 11:20:45;;;;;;;3.20;3.10;;;23.90;70.30;;;;;;5062095;28;43483;-71
2023/06/21 11:23:16;;;;;;;3.43;3.33;;;23.90;70.30;;;;;;5067691;28;43815;-71
2023/06/21 11:25:49;;;;;;;3.30;3.20;;;24.00;70.10;;;;;;5067931;28;43349;-71
2023/06/21 11:28:26;;;;;;;3.10;3.00;;;24.10;69.70;;;;;;5100169;27;43504;-73
2023/06/21 11:31:10;;;;;;;3.37;3.27;;;24.20;69.20;;;;;;5068108;28;43631;-70
2023/06/21 11:33:48;;;;;;;3.00;2.90;;;24.30;69.00;;;;;;5066457;28;43879;-70
2023/06/21 11:36:17;;;;;;;2.93;2.87;;;24.30;69.00;;;;;;5065170;28;44477;-70
2023/06/21 11:38:50;;;;;;;3.13;3.03;;;24.20;69.10;;;;;;5067491;28;43387;-70
2023/06/21 11:41:54;;;;;;;3.10;3.00;;;24.20;69.40;;;;;;5068149;28;43565;-71
2023/06/21 11:44:22;;;;;;;3.47;3.37;;;24.10;69.30;;;;;;5065884;28;46315;-70
2023/06/21 11:46:51;;;;;;;3.00;2.90;;;24.10;69.30;;;;;;5065827;28;45131;-70
2023/06/21 11:49:20;;;;;;;3.17;3.07;;;24.00;69.60;;;;;;5062556;28;43374;-71
2023/06/21 11:51:52;;;;;;;3.10;3.00;;;24.00;69.90;;;;;;5061575;28;43375;-70
2023/06/21 11:54:30;;;;;;;2.87;2.77;;;24.00;69.80;;;;;;5067156;28;43615;-70
2023/06/21 11:56:59;;;;;;;2.83;2.80;;;24.00;69.70;;;;;;5067346;28;43438;-72
2023/06/21 11:59:27;;;;;;;3.03;2.93;;;23.90;69.90;;;;;;5065390;28;43392;-71
2023/06/21 12:01:55;;;;;;;3.23;3.13;;;23.90;70.10;;;;;;5064453;28;43447;-71
2023/06/21 12:04:28;;;;;;;2.73;2.73;;;24.00;70.10;;;;;;5063806;28;43690;-71
2023/06/21 12:06:56;;;;;;;2.87;2.77;;;24.00;69.70;;;;;;5066598;28;43410;-71
2023/06/21 12:09:24;;;;;;;3.00;2.90;;;24.10;69.60;;;;;;5066603;28;43522;-71
2023/06/21 12:11:52;;;;;;;3.47;3.37;;;24.10;69.50;;;;;;5067284;28;43436;-71
2023/06/21 12:14:20;;;;;;;2.70;2.70;;;24.00;69.60;;;;;;5067038;28;43977;-71
2023/06/21 12:16:50;;;;;;;3.27;3.17;;;24.00;69.80;;;;;;5065405;28;43988;-72
2023/06/21 12:19:21;;;;;;;2.93;2.87;;;24.00;69.70;;;;;;5064980;28;44473;-72
2023/06/21 12:21:50;;;;;;;3.07;2.97;;;24.00;69.60;;;;;;5067538;28;43421;-71
2023/06/21 12:24:26;;;;;;;3.03;2.93;;;24.00;69.70;;;;;;5066412;28;44415;-72
2023/06/21 12:26:55;;;;;;;2.80;2.70;;;24.00;70.10;;;;;;5064201;28;44447;-72
2023/06/21 12:29:23;;;;;;;3.00;2.90;;;23.90;70.00;;;;;;5063774;28;43457;-71
2023/06/21 12:31:53;;;;;;;2.97;2.87;;;24.00;70.00;;;;;;5066748;28;43594;-71
2023/06/21 12:34:21;;;;;;;3.00;2.90;;;23.90;69.90;;;;;;5065069;28;43859;-72
2023/06/21 12:36:51;;;;;;;2.97;2.90;;;23.90;70.10;;;;;;5066010;28;44005;-74
2023/06/21 12:39:21;;;;;;;2.87;2.77;;;23.90;70.30;;;;;;5064337;28;43981;-71
2023/06/21 12:41:49;;;;;;;2.80;2.77;;;23.90;70.10;;;;;;5061344;28;43657;-71
2023/06/21 12:44:19;;;;;;;2.80;2.80;;;24.00;69.80;;;;;;5063929;28;45608;-74
2023/06/21 12:46:47;;;;;;;2.80;2.77;;;24.10;69.40;;;;;;5066341;28;43430;-74
2023/06/21 12:49:15;;;;;;;3.00;2.90;;;24.20;69.10;;;;;;5066425;28;43374;-74
2023/06/21 12:51:45;;;;;;;2.90;2.80;;;24.20;69.10;;;;;;5066462;28;43485;-72
2023/06/21 12:54:16;;;;;;;3.07;2.87;;;24.20;69.10;;;;;;5066689;28;43590;-72
2023/06/21 12:56:46;;;;;;;2.70;2.70;;;24.10;69.30;;;;;;5066787;28;43510;-72
2023/06/21 12:59:14;;;;;;;2.67;2.67;;;24.10;69.50;;;;;;5060828;28;43415;-71